sensor_id;sensor_type;location;lat;lon;timestamp;P1;durP1;ratioP1;P2;durP2;ratioP2
20423;SDS011;10371;49.042;8.002;2023-03-05T00:00:26;21.47;;;14.10;;
20423;SDS011;10371;49.042;8.002;2023-03-05T00:01:27;22.83;;;14.23;;
20423;SDS011;10371;49.042;8.002;2023-03-05T00:02:29;23.00;;;13.87;;
20423;SDS011;10371;49.042;8.002;2023-03-05T00:03:31;22.73;;;14.00;;
20423;SDS011;10371;49.042;8.002;2023-03-05T00:04:31;23.30;;;15.10;;
20423;SDS011;10371;49.042;8.002;2023-03-05T00:05:31;23.17;;;14.37;;
20423;SDS011;10371;49.042;8.002;2023-03-05T00:06:33;19.80;;;13.27;;
20423;SDS011;10371;49.042;8.002;2023-03-05T00:07:34;21.57;;;14.30;;
20423;SDS011;10371;49.042;8.002;2023-03-05T00:08:34;18.57;;;12.13;;
20423;SDS011;10371;49.042;8.002;2023-03-05T00:09:35;17.77;;;11.90;;
20423;SDS011;10371;49.042;8.002;2023-03-05T00:10:35;18.13;;;11.43;;
20423;SDS011;10371;49.042;8.002;2023-03-05T00:11:36;18.70;;;11.60;;
20423;SDS011;10371;49.042;8.002;2023-03-05T00:12:36;18.57;;;11.80;;
20423;SDS011;10371;49.042;8.002;2023-03-05T00:13:37;18.33;;;12.00;;
20423;SDS011;10371;49.042;8.002;2023-03-05T00:14:38;17.97;;;12.33;;
20423;SDS011;10371;49.042;8.002;2023-03-05T00:15:39;19.70;;;12.50;;
20423;SDS011;10371;49.042;8.002;2023-03-05T00:16:41;15.27;;;11.83;;
20423;SDS011;10371;49.042;8.002;2023-03-05T00:17:41;19.00;;;11.70;;
20423;SDS011;10371;49.042;8.002;2023-03-05T00:18:42;21.37;;;12.10;;
20423;SDS011;10371;49.042;8.002;2023-03-05T00:19:43;20.63;;;12.47;;
20423;SDS011;10371;49.042;8.002;2023-03-05T00:20:44;19.53;;;12.87;;
20423;SDS011;10371;49.042;8.002;2023-03-05T00:21:44;19.27;;;12.90;;
20423;SDS011;10371;49.042;8.002;2023-03-05T00:22:44;20.47;;;13.50;;
20423;SDS011;10371;49.042;8.002;2023-03-05T00:23:45;21.50;;;12.53;;
20423;SDS011;10371;49.042;8.002;2023-03-05T00:24:48;17.13;;;11.73;;
20423;SDS011;10371;49.042;8.002;2023-03-05T00:25:49;16.67;;;11.47;;
20423;SDS011;10371;49.042;8.002;2023-03-05T00:26:50;17.80;;;11.60;;
20423;SDS011;10371;49.042;8.002;2023-03-05T00:27:50;16.77;;;10.83;;
20423;SDS011;10371;49.042;8.002;2023-03-05T00:28:50;19.13;;;11.83;;
20423;SDS011;10371;49.042;8.002;2023-03-05T00:29:51;16.10;;;11.43;;
20423;SDS011;10371;49.042;8.002;2023-03-05T00:30:51;15.50;;;10.97;;
20423;SDS011;10371;49.042;8.002;2023-03-05T00:31:52;16.00;;;11.77;;
20423;SDS011;10371;49.042;8.002;2023-03-05T00:32:52;16.70;;;11.13;;
20423;SDS011;10371;49.042;8.002;2023-03-05T00:33:53;20.33;;;11.90;;
20423;SDS011;10371;49.042;8.002;2023-03-05T00:34:55;16.67;;;10.33;;
20423;SDS011;10371;49.042;8.002;2023-03-05T00:35:56;17.37;;;11.40;;
20423;SDS011;10371;49.042;8.002;2023-03-05T00:36:57;17.13;;;11.37;;
20423;SDS011;10371;49.042;8.002;2023-03-05T00:37:57;33.13;;;18.67;;
20423;SDS011;10371;49.042;8.002;2023-03-05T00:38:58;28.47;;;16.57;;
20423;SDS011;10371;49.042;8.002;2023-03-05T00:39:58;22.27;;;13.10;;
20423;SDS011;10371;49.042;8.002;2023-03-05T00:40:58;16.93;;;11.20;;
20423;SDS011;10371;49.042;8.002;2023-03-05T00:41:59;19.93;;;11.77;;
20423;SDS011;10371;49.042;8.002;2023-03-05T00:42:59;18.73;;;12.20;;
20423;SDS011;10371;49.042;8.002;2023-03-05T00:43:59;16.87;;;12.37;;
20423;SDS011;10371;49.042;8.002;2023-03-05T00:44:59;21.80;;;14.83;;
20423;SDS011;10371;49.042;8.002;2023-03-05T00:46:00;20.33;;;12.70;;
20423;SDS011;10371;49.042;8.002;2023-03-05T00:47:00;16.87;;;11.63;;
20423;SDS011;10371;49.042;8.002;2023-03-05T00:48:01;15.73;;;11.23;;
20423;SDS011;10371;49.042;8.002;2023-03-05T00:49:02;18.97;;;11.93;;
20423;SDS011;10371;49.042;8.002;2023-03-05T00:50:03;19.33;;;12.27;;
20423;SDS011;10371;49.042;8.002;2023-03-05T00:51:05;21.03;;;12.67;;
20423;SDS011;10371;49.042;8.002;2023-03-05T00:52:05;20.30;;;13.37;;
20423;SDS011;10371;49.042;8.002;2023-03-05T00:53:06;20.03;;;13.10;;
20423;SDS011;10371;49.042;8.002;2023-03-05T00:54:06;19.53;;;12.57;;
20423;SDS011;10371;49.042;8.002;2023-03-05T00:55:06;22.27;;;11.93;;
20423;SDS011;10371;49.042;8.002;2023-03-05T00:56:07;21.27;;;12.93;;
20423;SDS011;10371;49.042;8.002;2023-03-05T00:57:07;22.23;;;13.40;;
20423;SDS011;10371;49.042;8.002;2023-03-05T00:58:07;23.30;;;13.60;;
20423;SDS011;10371;49.042;8.002;2023-03-05T00:59:08;20.73;;;13.23;;
20423;SDS011;10371;49.042;8.002;2023-03-05T01:00:09;19.47;;;12.83;;
20423;SDS011;10371;49.042;8.002;2023-03-05T01:01:10;18.90;;;13.53;;
20423;SDS011;10371;49.042;8.002;2023-03-05T01:02:10;21.10;;;13.80;;
20423;SDS011;10371;49.042;8.002;2023-03-05T01:03:11;20.23;;;13.40;;
20423;SDS011;10371;49.042;8.002;2023-03-05T01:04:11;20.80;;;13.10;;
20423;SDS011;10371;49.042;8.002;2023-03-05T01:05:12;23.40;;;14.90;;
20423;SDS011;10371;49.042;8.002;2023-03-05T01:06:13;21.77;;;14.53;;
20423;SDS011;10371;49.042;8.002;2023-03-05T01:07:15;19.80;;;14.90;;
20423;SDS011;10371;49.042;8.002;2023-03-05T01:08:16;21.47;;;15.50;;
20423;SDS011;10371;49.042;8.002;2023-03-05T01:09:17;22.63;;;16.17;;
20423;SDS011;10371;49.042;8.002;2023-03-05T01:10:18;22.40;;;15.50;;
20423;SDS011;10371;49.042;8.002;2023-03-05T01:11:19;22.80;;;14.60;;
20423;SDS011;10371;49.042;8.002;2023-03-05T01:12:19;21.70;;;13.17;;
20423;SDS011;10371;49.042;8.002;2023-03-05T01:13:20;21.00;;;13.93;;
20423;SDS011;10371;49.042;8.002;2023-03-05T01:14:20;19.13;;;13.40;;
20423;SDS011;10371;49.042;8.002;2023-03-05T01:15:21;20.90;;;14.17;;
20423;SDS011;10371;49.042;8.002;2023-03-05T01:16:22;20.13;;;13.70;;
20423;SDS011;10371;49.042;8.002;2023-03-05T01:17:22;26.97;;;14.57;;
20423;SDS011;10371;49.042;8.002;2023-03-05T01:18:23;26.40;;;15.53;;
20423;SDS011;10371;49.042;8.002;2023-03-05T01:19:23;23.97;;;14.80;;
20423;SDS011;10371;49.042;8.002;2023-03-05T01:20:23;23.23;;;13.43;;
20423;SDS011;10371;49.042;8.002;2023-03-05T01:21:24;23.60;;;14.33;;
20423;SDS011;10371;49.042;8.002;2023-03-05T01:22:24;21.00;;;14.00;;
20423;SDS011;10371;49.042;8.002;2023-03-05T01:23:25;20.30;;;14.00;;
20423;SDS011;10371;49.042;8.002;2023-03-05T01:24:25;19.70;;;13.90;;
20423;SDS011;10371;49.042;8.002;2023-03-05T01:25:26;20.40;;;13.80;;
20423;SDS011;10371;49.042;8.002;2023-03-05T01:26:27;20.30;;;13.73;;
20423;SDS011;10371;49.042;8.002;2023-03-05T01:27:27;20.73;;;13.40;;
20423;SDS011;10371;49.042;8.002;2023-03-05T01:28:27;18.90;;;13.40;;
20423;SDS011;10371;49.042;8.002;2023-03-05T01:29:28;20.43;;;13.87;;
20423;SDS011;10371;49.042;8.002;2023-03-05T01:30:28;20.90;;;14.07;;
20423;SDS011;10371;49.042;8.002;2023-03-05T01:31:29;22.60;;;15.03;;
20423;SDS011;10371;49.042;8.002;2023-03-05T01:32:29;24.57;;;14.60;;
20423;SDS011;10371;49.042;8.002;2023-03-05T01:33:29;21.97;;;14.13;;
20423;SDS011;10371;49.042;8.002;2023-03-05T01:34:30;23.53;;;15.00;;
20423;SDS011;10371;49.042;8.002;2023-03-05T01:35:30;20.80;;;14.17;;
20423;SDS011;10371;49.042;8.002;2023-03-05T01:36:30;21.00;;;14.17;;
20423;SDS011;10371;49.042;8.002;2023-03-05T01:37:31;22.13;;;15.30;;
20423;SDS011;10371;49.042;8.002;2023-03-05T01:38:31;23.27;;;16.47;;
20423;SDS011;10371;49.042;8.002;2023-03-05T01:39:32;21.30;;;14.60;;
20423;SDS011;10371;49.042;8.002;2023-03-05T01:40:32;24.20;;;15.20;;
20423;SDS011;10371;49.042;8.002;2023-03-05T01:41:32;23.17;;;14.77;;
20423;SDS011;10371;49.042;8.002;2023-03-05T01:42:33;19.37;;;13.63;;
20423;SDS011;10371;49.042;8.002;2023-03-05T01:43:33;20.60;;;14.00;;
20423;SDS011;10371;49.042;8.002;2023-03-05T01:44:34;21.53;;;14.67;;
20423;SDS011;10371;49.042;8.002;2023-03-05T01:45:34;22.47;;;14.67;;
20423;SDS011;10371;49.042;8.002;2023-03-05T01:46:35;20.90;;;13.97;;
20423;SDS011;10371;49.042;8.002;2023-03-05T01:47:37;21.87;;;15.17;;
20423;SDS011;10371;49.042;8.002;2023-03-05T01:48:38;21.93;;;13.90;;
20423;SDS011;10371;49.042;8.002;2023-03-05T01:49:41;20.83;;;14.47;;
20423;SDS011;10371;49.042;8.002;2023-03-05T01:50:41;22.83;;;13.97;;
20423;SDS011;10371;49.042;8.002;2023-03-05T01:53:02;21.37;;;14.87;;
20423;SDS011;10371;49.042;8.002;2023-03-05T01:54:05;23.63;;;14.03;;
20423;SDS011;10371;49.042;8.002;2023-03-05T01:55:12;20.60;;;13.67;;
20423;SDS011;10371;49.042;8.002;2023-03-05T01:56:15;22.07;;;13.90;;
20423;SDS011;10371;49.042;8.002;2023-03-05T01:57:17;21.57;;;14.00;;
20423;SDS011;10371;49.042;8.002;2023-03-05T01:58:20;19.70;;;13.33;;
20423;SDS011;10371;49.042;8.002;2023-03-05T01:59:21;19.67;;;14.20;;
20423;SDS011;10371;49.042;8.002;2023-03-05T02:00:24;20.77;;;13.93;;
20423;SDS011;10371;49.042;8.002;2023-03-05T02:01:29;22.07;;;13.87;;
20423;SDS011;10371;49.042;8.002;2023-03-05T02:02:32;20.63;;;13.93;;
20423;SDS011;10371;49.042;8.002;2023-03-05T02:03:32;23.20;;;14.20;;
20423;SDS011;10371;49.042;8.002;2023-03-05T02:04:36;20.43;;;13.37;;
20423;SDS011;10371;49.042;8.002;2023-03-05T02:05:42;19.50;;;13.33;;
20423;SDS011;10371;49.042;8.002;2023-03-05T02:06:43;18.67;;;13.63;;
20423;SDS011;10371;49.042;8.002;2023-03-05T02:07:44;20.43;;;13.90;;
20423;SDS011;10371;49.042;8.002;2023-03-05T02:08:45;19.20;;;13.40;;
20423;SDS011;10371;49.042;8.002;2023-03-05T02:09:46;22.20;;;14.43;;
20423;SDS011;10371;49.042;8.002;2023-03-05T02:10:47;21.70;;;14.07;;
20423;SDS011;10371;49.042;8.002;2023-03-05T02:11:49;21.10;;;13.67;;
20423;SDS011;10371;49.042;8.002;2023-03-05T02:12:51;18.87;;;12.97;;
20423;SDS011;10371;49.042;8.002;2023-03-05T02:13:53;20.97;;;13.90;;
20423;SDS011;10371;49.042;8.002;2023-03-05T02:14:53;21.73;;;14.03;;
20423;SDS011;10371;49.042;8.002;2023-03-05T02:15:58;21.47;;;14.53;;
20423;SDS011;10371;49.042;8.002;2023-03-05T02:16:59;22.00;;;14.00;;
20423;SDS011;10371;49.042;8.002;2023-03-05T02:18:00;23.20;;;15.07;;
20423;SDS011;10371;49.042;8.002;2023-03-05T02:19:02;19.93;;;13.70;;
20423;SDS011;10371;49.042;8.002;2023-03-05T02:20:08;17.67;;;13.50;;
20423;SDS011;10371;49.042;8.002;2023-03-05T02:21:14;19.10;;;14.00;;
20423;SDS011;10371;49.042;8.002;2023-03-05T02:22:27;21.43;;;13.87;;
20423;SDS011;10371;49.042;8.002;2023-03-05T02:23:29;18.73;;;13.27;;
20423;SDS011;10371;49.042;8.002;2023-03-05T02:24:35;21.37;;;13.93;;
20423;SDS011;10371;49.042;8.002;2023-03-05T02:25:36;20.97;;;14.37;;
20423;SDS011;10371;49.042;8.002;2023-03-05T02:26:36;19.87;;;14.30;;
20423;SDS011;10371;49.042;8.002;2023-03-05T02:27:36;20.60;;;14.37;;
20423;SDS011;10371;49.042;8.002;2023-03-05T02:28:41;20.03;;;15.37;;
20423;SDS011;10371;49.042;8.002;2023-03-05T02:29:44;22.77;;;15.70;;
20423;SDS011;10371;49.042;8.002;2023-03-05T02:30:45;21.97;;;15.53;;
20423;SDS011;10371;49.042;8.002;2023-03-05T02:31:45;22.17;;;14.47;;
20423;SDS011;10371;49.042;8.002;2023-03-05T02:32:46;18.70;;;13.30;;
20423;SDS011;10371;49.042;8.002;2023-03-05T02:33:46;18.57;;;13.40;;
20423;SDS011;10371;49.042;8.002;2023-03-05T02:34:47;18.33;;;14.07;;
20423;SDS011;10371;49.042;8.002;2023-03-05T02:35:47;20.80;;;14.10;;
20423;SDS011;10371;49.042;8.002;2023-03-05T02:36:47;19.47;;;14.37;;
20423;SDS011;10371;49.042;8.002;2023-03-05T02:37:49;20.67;;;13.80;;
20423;SDS011;10371;49.042;8.002;2023-03-05T02:38:49;19.73;;;14.43;;
20423;SDS011;10371;49.042;8.002;2023-03-05T02:39:51;22.77;;;15.60;;
20423;SDS011;10371;49.042;8.002;2023-03-05T02:40:52;20.77;;;14.97;;
20423;SDS011;10371;49.042;8.002;2023-03-05T02:41:52;20.20;;;14.97;;
20423;SDS011;10371;49.042;8.002;2023-03-05T02:42:52;22.60;;;15.60;;
20423;SDS011;10371;49.042;8.002;2023-03-05T02:43:53;21.43;;;14.90;;
20423;SDS011;10371;49.042;8.002;2023-03-05T02:44:53;19.80;;;14.50;;
20423;SDS011;10371;49.042;8.002;2023-03-05T02:45:53;21.83;;;15.13;;
20423;SDS011;10371;49.042;8.002;2023-03-05T02:46:54;21.57;;;15.13;;
20423;SDS011;10371;49.042;8.002;2023-03-05T02:47:54;24.53;;;15.40;;
20423;SDS011;10371;49.042;8.002;2023-03-05T02:48:54;21.90;;;15.40;;
20423;SDS011;10371;49.042;8.002;2023-03-05T02:49:54;20.00;;;14.07;;
20423;SDS011;10371;49.042;8.002;2023-03-05T02:50:55;19.13;;;13.83;;
20423;SDS011;10371;49.042;8.002;2023-03-05T02:51:56;20.83;;;13.70;;
20423;SDS011;10371;49.042;8.002;2023-03-05T02:52:56;21.27;;;14.57;;
20423;SDS011;10371;49.042;8.002;2023-03-05T02:53:56;18.70;;;12.87;;
20423;SDS011;10371;49.042;8.002;2023-03-05T02:54:56;18.33;;;12.97;;
20423;SDS011;10371;49.042;8.002;2023-03-05T02:55:57;18.80;;;13.70;;
20423;SDS011;10371;49.042;8.002;2023-03-05T02:56:57;17.87;;;12.80;;
20423;SDS011;10371;49.042;8.002;2023-03-05T02:57:58;19.83;;;13.33;;
20423;SDS011;10371;49.042;8.002;2023-03-05T02:58:58;20.43;;;13.33;;
20423;SDS011;10371;49.042;8.002;2023-03-05T02:59:58;21.43;;;13.20;;
20423;SDS011;10371;49.042;8.002;2023-03-05T03:00:58;23.30;;;14.47;;
20423;SDS011;10371;49.042;8.002;2023-03-05T03:01:59;18.23;;;12.57;;
20423;SDS011;10371;49.042;8.002;2023-03-05T03:02:59;21.53;;;13.43;;
20423;SDS011;10371;49.042;8.002;2023-03-05T03:03:59;21.13;;;14.37;;
20423;SDS011;10371;49.042;8.002;2023-03-05T03:04:59;20.37;;;13.20;;
20423;SDS011;10371;49.042;8.002;2023-03-05T03:06:00;21.03;;;13.33;;
20423;SDS011;10371;49.042;8.002;2023-03-05T03:07:00;17.63;;;12.77;;
20423;SDS011;10371;49.042;8.002;2023-03-05T03:08:00;19.27;;;13.10;;
20423;SDS011;10371;49.042;8.002;2023-03-05T03:09:01;19.23;;;13.57;;
20423;SDS011;10371;49.042;8.002;2023-03-05T03:10:02;20.10;;;12.97;;
20423;SDS011;10371;49.042;8.002;2023-03-05T03:11:08;21.83;;;13.50;;
20423;SDS011;10371;49.042;8.002;2023-03-05T03:12:11;19.23;;;12.63;;
20423;SDS011;10371;49.042;8.002;2023-03-05T03:13:11;16.23;;;12.23;;
20423;SDS011;10371;49.042;8.002;2023-03-05T03:14:11;18.90;;;13.33;;
20423;SDS011;10371;49.042;8.002;2023-03-05T03:15:13;17.93;;;12.33;;
20423;SDS011;10371;49.042;8.002;2023-03-05T03:16:14;19.70;;;12.63;;
20423;SDS011;10371;49.042;8.002;2023-03-05T03:17:15;17.37;;;12.50;;
20423;SDS011;10371;49.042;8.002;2023-03-05T03:18:16;20.67;;;12.70;;
20423;SDS011;10371;49.042;8.002;2023-03-05T03:19:17;18.53;;;12.17;;
20423;SDS011;10371;49.042;8.002;2023-03-05T03:20:17;19.63;;;13.33;;
20423;SDS011;10371;49.042;8.002;2023-03-05T03:21:19;19.37;;;12.70;;
20423;SDS011;10371;49.042;8.002;2023-03-05T03:22:21;18.33;;;12.27;;
20423;SDS011;10371;49.042;8.002;2023-03-05T03:23:22;18.03;;;12.43;;
20423;SDS011;10371;49.042;8.002;2023-03-05T03:24:22;18.23;;;12.87;;
20423;SDS011;10371;49.042;8.002;2023-03-05T03:25:22;16.93;;;12.57;;
20423;SDS011;10371;49.042;8.002;2023-03-05T03:26:23;19.10;;;12.23;;
20423;SDS011;10371;49.042;8.002;2023-03-05T03:27:23;19.80;;;12.87;;
20423;SDS011;10371;49.042;8.002;2023-03-05T03:28:24;18.97;;;12.47;;
20423;SDS011;10371;49.042;8.002;2023-03-05T03:29:24;18.50;;;12.40;;
20423;SDS011;10371;49.042;8.002;2023-03-05T03:30:24;16.40;;;12.10;;
20423;SDS011;10371;49.042;8.002;2023-03-05T03:31:25;19.80;;;13.30;;
20423;SDS011;10371;49.042;8.002;2023-03-05T03:32:25;20.00;;;12.93;;
20423;SDS011;10371;49.042;8.002;2023-03-05T03:33:25;17.47;;;11.80;;
20423;SDS011;10371;49.042;8.002;2023-03-05T03:34:26;18.20;;;12.27;;
20423;SDS011;10371;49.042;8.002;2023-03-05T03:35:26;17.90;;;12.13;;
20423;SDS011;10371;49.042;8.002;2023-03-05T03:36:27;18.57;;;13.13;;
20423;SDS011;10371;49.042;8.002;2023-03-05T03:37:27;17.53;;;12.50;;
20423;SDS011;10371;49.042;8.002;2023-03-05T03:38:28;17.40;;;12.30;;
20423;SDS011;10371;49.042;8.002;2023-03-05T03:39:28;19.07;;;13.00;;
20423;SDS011;10371;49.042;8.002;2023-03-05T03:40:29;19.77;;;12.73;;
20423;SDS011;10371;49.042;8.002;2023-03-05T03:41:29;18.27;;;13.13;;
20423;SDS011;10371;49.042;8.002;2023-03-05T03:42:30;20.87;;;13.40;;
20423;SDS011;10371;49.042;8.002;2023-03-05T03:43:30;18.10;;;12.63;;
20423;SDS011;10371;49.042;8.002;2023-03-05T03:44:31;21.43;;;14.50;;
20423;SDS011;10371;49.042;8.002;2023-03-05T03:45:31;21.90;;;14.00;;
20423;SDS011;10371;49.042;8.002;2023-03-05T03:46:31;18.07;;;13.50;;
20423;SDS011;10371;49.042;8.002;2023-03-05T03:47:32;21.50;;;14.50;;
20423;SDS011;10371;49.042;8.002;2023-03-05T03:48:32;19.67;;;14.93;;
20423;SDS011;10371;49.042;8.002;2023-03-05T03:49:32;21.30;;;13.83;;
20423;SDS011;10371;49.042;8.002;2023-03-05T03:50:33;24.97;;;15.17;;
20423;SDS011;10371;49.042;8.002;2023-03-05T03:51:33;20.97;;;14.13;;
20423;SDS011;10371;49.042;8.002;2023-03-05T03:52:33;19.60;;;13.73;;
20423;SDS011;10371;49.042;8.002;2023-03-05T03:53:34;18.00;;;13.27;;
20423;SDS011;10371;49.042;8.002;2023-03-05T03:54:34;20.90;;;13.33;;
20423;SDS011;10371;49.042;8.002;2023-03-05T03:55:34;20.23;;;13.20;;
20423;SDS011;10371;49.042;8.002;2023-03-05T03:56:35;17.17;;;12.47;;
20423;SDS011;10371;49.042;8.002;2023-03-05T03:57:35;20.53;;;13.40;;
20423;SDS011;10371;49.042;8.002;2023-03-05T03:58:35;18.63;;;12.27;;
20423;SDS011;10371;49.042;8.002;2023-03-05T03:59:36;19.93;;;13.67;;
20423;SDS011;10371;49.042;8.002;2023-03-05T04:00:36;19.20;;;13.40;;
20423;SDS011;10371;49.042;8.002;2023-03-05T04:01:37;21.87;;;15.03;;
20423;SDS011;10371;49.042;8.002;2023-03-05T04:02:38;20.67;;;15.13;;
20423;SDS011;10371;49.042;8.002;2023-03-05T04:03:38;21.63;;;13.43;;
20423;SDS011;10371;49.042;8.002;2023-03-05T04:04:39;20.70;;;13.63;;
20423;SDS011;10371;49.042;8.002;2023-03-05T04:05:39;18.83;;;13.37;;
20423;SDS011;10371;49.042;8.002;2023-03-05T04:06:39;20.27;;;14.00;;
20423;SDS011;10371;49.042;8.002;2023-03-05T04:07:40;23.10;;;15.20;;
20423;SDS011;10371;49.042;8.002;2023-03-05T04:08:40;24.70;;;16.27;;
20423;SDS011;10371;49.042;8.002;2023-03-05T04:09:40;30.57;;;20.83;;
20423;SDS011;10371;49.042;8.002;2023-03-05T04:10:41;30.80;;;20.07;;
20423;SDS011;10371;49.042;8.002;2023-03-05T04:11:41;25.93;;;20.03;;
20423;SDS011;10371;49.042;8.002;2023-03-05T04:12:41;24.30;;;17.80;;
20423;SDS011;10371;49.042;8.002;2023-03-05T04:13:42;27.17;;;19.60;;
20423;SDS011;10371;49.042;8.002;2023-03-05T04:14:43;25.40;;;17.20;;
20423;SDS011;10371;49.042;8.002;2023-03-05T04:15:45;22.73;;;16.03;;
20423;SDS011;10371;49.042;8.002;2023-03-05T04:16:45;24.33;;;16.07;;
20423;SDS011;10371;49.042;8.002;2023-03-05T04:17:45;22.53;;;15.10;;
20423;SDS011;10371;49.042;8.002;2023-03-05T04:18:46;21.70;;;14.70;;
20423;SDS011;10371;49.042;8.002;2023-03-05T04:19:46;19.50;;;13.53;;
20423;SDS011;10371;49.042;8.002;2023-03-05T04:20:46;20.30;;;12.37;;
20423;SDS011;10371;49.042;8.002;2023-03-05T04:21:47;19.37;;;12.60;;
20423;SDS011;10371;49.042;8.002;2023-03-05T04:22:47;17.90;;;12.07;;
20423;SDS011;10371;49.042;8.002;2023-03-05T04:23:47;18.57;;;12.40;;
20423;SDS011;10371;49.042;8.002;2023-03-05T04:24:47;18.23;;;12.43;;
20423;SDS011;10371;49.042;8.002;2023-03-05T04:25:48;15.30;;;11.27;;
20423;SDS011;10371;49.042;8.002;2023-03-05T04:26:48;17.50;;;12.40;;
20423;SDS011;10371;49.042;8.002;2023-03-05T04:27:48;16.77;;;11.80;;
20423;SDS011;10371;49.042;8.002;2023-03-05T04:28:48;16.03;;;11.67;;
20423;SDS011;10371;49.042;8.002;2023-03-05T04:29:49;15.03;;;11.30;;
20423;SDS011;10371;49.042;8.002;2023-03-05T04:30:49;18.07;;;11.77;;
20423;SDS011;10371;49.042;8.002;2023-03-05T04:31:49;18.23;;;12.27;;
20423;SDS011;10371;49.042;8.002;2023-03-05T04:32:49;18.83;;;12.43;;
20423;SDS011;10371;49.042;8.002;2023-03-05T04:33:50;16.60;;;11.83;;
20423;SDS011;10371;49.042;8.002;2023-03-05T04:34:50;17.77;;;12.30;;
20423;SDS011;10371;49.042;8.002;2023-03-05T04:35:50;18.50;;;12.80;;
20423;SDS011;10371;49.042;8.002;2023-03-05T04:36:51;18.27;;;12.53;;
20423;SDS011;10371;49.042;8.002;2023-03-05T04:37:51;17.47;;;12.73;;
20423;SDS011;10371;49.042;8.002;2023-03-05T04:38:52;17.37;;;11.90;;
20423;SDS011;10371;49.042;8.002;2023-03-05T04:39:52;20.50;;;13.40;;
20423;SDS011;10371;49.042;8.002;2023-03-05T04:40:52;18.20;;;13.80;;
20423;SDS011;10371;49.042;8.002;2023-03-05T04:41:53;18.13;;;13.20;;
20423;SDS011;10371;49.042;8.002;2023-03-05T04:42:53;21.30;;;14.67;;
20423;SDS011;10371;49.042;8.002;2023-03-05T04:43:53;18.07;;;13.47;;
20423;SDS011;10371;49.042;8.002;2023-03-05T04:44:53;24.67;;;15.03;;
20423;SDS011;10371;49.042;8.002;2023-03-05T04:45:54;20.40;;;13.73;;
20423;SDS011;10371;49.042;8.002;2023-03-05T04:46:54;20.17;;;13.23;;
20423;SDS011;10371;49.042;8.002;2023-03-05T04:47:55;20.33;;;14.40;;
20423;SDS011;10371;49.042;8.002;2023-03-05T04:48:55;20.73;;;13.93;;
20423;SDS011;10371;49.042;8.002;2023-03-05T04:49:56;21.03;;;13.60;;
20423;SDS011;10371;49.042;8.002;2023-03-05T04:50:56;21.93;;;13.40;;
20423;SDS011;10371;49.042;8.002;2023-03-05T04:51:57;16.97;;;13.30;;
20423;SDS011;10371;49.042;8.002;2023-03-05T04:52:57;19.40;;;13.47;;
20423;SDS011;10371;49.042;8.002;2023-03-05T04:53:59;17.37;;;13.30;;
20423;SDS011;10371;49.042;8.002;2023-03-05T04:54:59;16.73;;;12.53;;
20423;SDS011;10371;49.042;8.002;2023-03-05T04:55:59;18.20;;;12.87;;
20423;SDS011;10371;49.042;8.002;2023-03-05T04:57:00;19.73;;;12.67;;
20423;SDS011;10371;49.042;8.002;2023-03-05T04:58:00;17.20;;;12.43;;
20423;SDS011;10371;49.042;8.002;2023-03-05T04:59:01;16.07;;;11.97;;
20423;SDS011;10371;49.042;8.002;2023-03-05T05:00:01;15.30;;;11.23;;
20423;SDS011;10371;49.042;8.002;2023-03-05T05:01:06;17.13;;;12.17;;
20423;SDS011;10371;49.042;8.002;2023-03-05T05:02:06;16.60;;;12.03;;
20423;SDS011;10371;49.042;8.002;2023-03-05T05:03:07;16.60;;;11.33;;
20423;SDS011;10371;49.042;8.002;2023-03-05T05:04:07;17.30;;;11.27;;
20423;SDS011;10371;49.042;8.002;2023-03-05T05:05:09;16.87;;;12.37;;
20423;SDS011;10371;49.042;8.002;2023-03-05T05:06:11;15.40;;;11.37;;
20423;SDS011;10371;49.042;8.002;2023-03-05T05:07:12;15.30;;;11.43;;
20423;SDS011;10371;49.042;8.002;2023-03-05T05:08:12;14.00;;;11.73;;
20423;SDS011;10371;49.042;8.002;2023-03-05T05:09:12;15.87;;;11.63;;
20423;SDS011;10371;49.042;8.002;2023-03-05T05:10:13;18.23;;;12.27;;
20423;SDS011;10371;49.042;8.002;2023-03-05T05:11:14;18.07;;;12.20;;
20423;SDS011;10371;49.042;8.002;2023-03-05T05:12:14;18.77;;;12.33;;
20423;SDS011;10371;49.042;8.002;2023-03-05T05:13:15;14.07;;;11.10;;
20423;SDS011;10371;49.042;8.002;2023-03-05T05:14:15;15.87;;;11.77;;
20423;SDS011;10371;49.042;8.002;2023-03-05T05:15:16;22.77;;;14.33;;
20423;SDS011;10371;49.042;8.002;2023-03-05T05:16:16;20.43;;;14.00;;
20423;SDS011;10371;49.042;8.002;2023-03-05T05:17:16;22.43;;;15.10;;
20423;SDS011;10371;49.042;8.002;2023-03-05T05:18:17;25.00;;;16.20;;
20423;SDS011;10371;49.042;8.002;2023-03-05T05:19:17;24.70;;;16.73;;
20423;SDS011;10371;49.042;8.002;2023-03-05T05:20:17;28.20;;;17.17;;
20423;SDS011;10371;49.042;8.002;2023-03-05T05:21:18;30.57;;;18.10;;
20423;SDS011;10371;49.042;8.002;2023-03-05T05:22:19;26.00;;;16.30;;
20423;SDS011;10371;49.042;8.002;2023-03-05T05:23:19;21.37;;;13.23;;
20423;SDS011;10371;49.042;8.002;2023-03-05T05:24:19;21.20;;;13.43;;
20423;SDS011;10371;49.042;8.002;2023-03-05T05:25:20;18.90;;;12.80;;
20423;SDS011;10371;49.042;8.002;2023-03-05T05:26:20;17.13;;;11.97;;
20423;SDS011;10371;49.042;8.002;2023-03-05T05:27:20;17.60;;;11.70;;
20423;SDS011;10371;49.042;8.002;2023-03-05T05:28:21;17.50;;;12.50;;
20423;SDS011;10371;49.042;8.002;2023-03-05T05:29:21;19.47;;;12.90;;
20423;SDS011;10371;49.042;8.002;2023-03-05T05:30:22;16.40;;;11.60;;
20423;SDS011;10371;49.042;8.002;2023-03-05T05:31:22;16.40;;;11.80;;
20423;SDS011;10371;49.042;8.002;2023-03-05T05:32:23;19.27;;;13.00;;
20423;SDS011;10371;49.042;8.002;2023-03-05T05:33:24;19.47;;;12.57;;
20423;SDS011;10371;49.042;8.002;2023-03-05T05:34:24;18.37;;;12.40;;
20423;SDS011;10371;49.042;8.002;2023-03-05T05:35:24;15.07;;;11.50;;
20423;SDS011;10371;49.042;8.002;2023-03-05T05:36:25;17.90;;;12.23;;
20423;SDS011;10371;49.042;8.002;2023-03-05T05:37:25;16.37;;;12.07;;
20423;SDS011;10371;49.042;8.002;2023-03-05T05:38:26;18.00;;;12.50;;
20423;SDS011;10371;49.042;8.002;2023-03-05T05:39:26;19.97;;;12.87;;
20423;SDS011;10371;49.042;8.002;2023-03-05T05:40:27;15.70;;;11.77;;
20423;SDS011;10371;49.042;8.002;2023-03-05T05:41:27;17.27;;;12.07;;
20423;SDS011;10371;49.042;8.002;2023-03-05T05:42:27;15.63;;;12.03;;
20423;SDS011;10371;49.042;8.002;2023-03-05T05:43:28;16.50;;;11.83;;
20423;SDS011;10371;49.042;8.002;2023-03-05T05:44:28;19.13;;;13.13;;
20423;SDS011;10371;49.042;8.002;2023-03-05T05:45:29;18.23;;;12.83;;
20423;SDS011;10371;49.042;8.002;2023-03-05T05:46:29;18.50;;;12.73;;
20423;SDS011;10371;49.042;8.002;2023-03-05T05:47:29;17.27;;;12.77;;
20423;SDS011;10371;49.042;8.002;2023-03-05T05:48:30;17.40;;;12.27;;
20423;SDS011;10371;49.042;8.002;2023-03-05T05:49:31;16.53;;;11.63;;
20423;SDS011;10371;49.042;8.002;2023-03-05T05:50:31;17.50;;;11.73;;
20423;SDS011;10371;49.042;8.002;2023-03-05T05:51:32;17.97;;;12.03;;
20423;SDS011;10371;49.042;8.002;2023-03-05T05:52:32;15.83;;;11.47;;
20423;SDS011;10371;49.042;8.002;2023-03-05T05:53:32;14.63;;;10.77;;
20423;SDS011;10371;49.042;8.002;2023-03-05T05:54:33;15.87;;;11.00;;
20423;SDS011;10371;49.042;8.002;2023-03-05T05:55:33;18.57;;;12.00;;
20423;SDS011;10371;49.042;8.002;2023-03-05T05:56:33;16.07;;;11.97;;